sensor_id;sensor_type;location;lat;lon;timestamp;pressure;altitude;pressure_sealevel;temperature;humidity
77124;BME280;66079;47.646;19.130;2023-02-15T00:00:08;102111.03;;;-0.25;77.46
77124;BME280;66079;47.646;19.130;2023-02-15T00:03:15;102105.38;;;-0.44;78.43
77124;BME280;66079;47.646;19.130;2023-02-15T00:06:18;102109.03;;;-0.34;78.67
77124;BME280;66079;47.646;19.130;2023-02-15T00:09:21;102111.31;;;-0.29;78.76
77124;BME280;66079;47.646;19.130;2023-02-15T00:12:24;102101.56;;;-0.37;78.30
77124;BME280;66079;47.646;19.130;2023-02-15T00:15:26;102102.63;;;-0.41;78.68
77124;BME280;66079;47.646;19.130;2023-02-15T00:18:29;102094.09;;;-0.40;78.82
77124;BME280;66079;47.646;19.130;2023-02-15T00:21:33;102103.09;;;-0.34;78.57
77124;BME280;66079;47.646;19.130;2023-02-15T00:24:36;102099.34;;;-0.43;78.42
77124;BME280;66079;47.646;19.130;2023-02-15T00:27:38;102094.03;;;-0.54;77.67
77124;BME280;66079;47.646;19.130;2023-02-15T00:30:41;102096.03;;;-0.59;78.22
77124;BME280;66079;47.646;19.130;2023-02-15T00:33:43;102109.72;;;-0.60;78.09
77124;BME280;66079;47.646;19.130;2023-02-15T00:36:46;102104.63;;;-0.60;78.52
77124;BME280;66079;47.646;19.130;2023-02-15T00:39:49;102102.25;;;-0.63;78.56
77124;BME280;66079;47.646;19.130;2023-02-15T00:42:52;102107.81;;;-0.56;79.14
77124;BME280;66079;47.646;19.130;2023-02-15T00:45:55;102097.94;;;-0.62;79.36
77124;BME280;66079;47.646;19.130;2023-02-15T00:48:58;102107.34;;;-0.63;78.99
77124;BME280;66079;47.646;19.130;2023-02-15T00:52:00;102101.94;;;-0.72;79.06
77124;BME280;66079;47.646;19.130;2023-02-15T00:55:03;102093.09;;;-0.67;79.19
77124;BME280;66079;47.646;19.130;2023-02-15T00:58:07;102097.13;;;-0.63;78.94
77124;BME280;66079;47.646;19.130;2023-02-15T01:01:15;102089.78;;;-0.83;79.26
77124;BME280;66079;47.646;19.130;2023-02-15T01:04:19;102074.06;;;-0.91;79.68
77124;BME280;66079;47.646;19.130;2023-02-15T01:07:22;102093.66;;;-0.91;79.15
77124;BME280;66079;47.646;19.130;2023-02-15T01:10:26;102100.66;;;-0.95;79.69
77124;BME280;66079;47.646;19.130;2023-02-15T01:13:30;102097.34;;;-0.81;79.96
77124;BME280;66079;47.646;19.130;2023-02-15T01:16:32;102106.91;;;-0.85;79.49
77124;BME280;66079;47.646;19.130;2023-02-15T01:19:35;102107.00;;;-0.86;79.89
77124;BME280;66079;47.646;19.130;2023-02-15T01:22:37;102101.97;;;-0.88;80.51
77124;BME280;66079;47.646;19.130;2023-02-15T01:25:40;102104.44;;;-0.86;79.93
77124;BME280;66079;47.646;19.130;2023-02-15T01:28:45;102103.47;;;-0.84;80.03
77124;BME280;66079;47.646;19.130;2023-02-15T01:31:48;102100.66;;;-0.79;79.86
77124;BME280;66079;47.646;19.130;2023-02-15T01:34:50;102097.06;;;-0.77;79.58
77124;BME280;66079;47.646;19.130;2023-02-15T01:37:55;102079.09;;;-0.89;79.24
77124;BME280;66079;47.646;19.130;2023-02-15T01:40:58;102090.75;;;-0.85;79.74
77124;BME280;66079;47.646;19.130;2023-02-15T01:44:53;102088.53;;;-0.76;80.15
77124;BME280;66079;47.646;19.130;2023-02-15T01:47:58;102089.50;;;-0.78;80.13
77124;BME280;66079;47.646;19.130;2023-02-15T01:51:04;102063.56;;;-1.00;80.63
77124;BME280;66079;47.646;19.130;2023-02-15T01:54:21;102079.75;;;-0.86;80.97
77124;BME280;66079;47.646;19.130;2023-02-15T01:57:28;102069.84;;;-0.92;79.43
77124;BME280;66079;47.646;19.130;2023-02-15T02:00:32;102059.81;;;-0.95;79.96
77124;BME280;66079;47.646;19.130;2023-02-15T02:06:46;102066.25;;;-0.88;80.39
77124;BME280;66079;47.646;19.130;2023-02-15T02:09:50;102079.22;;;-0.77;81.39
77124;BME280;66079;47.646;19.130;2023-02-15T02:12:56;102063.78;;;-0.89;80.84
77124;BME280;66079;47.646;19.130;2023-02-15T02:19:22;102075.97;;;-0.94;84.40
77124;BME280;66079;47.646;19.130;2023-02-15T02:22:53;102080.41;;;-0.98;85.18
77124;BME280;66079;47.646;19.130;2023-02-15T02:29:49;102073.38;;;-1.08;85.64
77124;BME280;66079;47.646;19.130;2023-02-15T02:33:18;102065.56;;;-1.05;84.64
77124;BME280;66079;47.646;19.130;2023-02-15T02:43:31;102081.09;;;-1.10;84.03
77124;BME280;66079;47.646;19.130;2023-02-15T02:46:53;102076.72;;;-1.08;83.35
77124;BME280;66079;47.646;19.130;2023-02-15T02:50:06;102074.75;;;-1.03;83.45
77124;BME280;66079;47.646;19.130;2023-02-15T02:53:09;102066.72;;;-1.11;83.33
77124;BME280;66079;47.646;19.130;2023-02-15T02:56:24;102087.69;;;-1.06;82.96
77124;BME280;66079;47.646;19.130;2023-02-15T02:59:34;102082.59;;;-1.06;82.94
77124;BME280;66079;47.646;19.130;2023-02-15T03:02:41;102076.44;;;-1.17;83.33
77124;BME280;66079;47.646;19.130;2023-02-15T03:05:47;102086.06;;;-1.07;82.90
77124;BME280;66079;47.646;19.130;2023-02-15T03:09:01;102067.06;;;-1.17;82.93
77124;BME280;66079;47.646;19.130;2023-02-15T03:12:06;102085.31;;;-1.09;82.63
77124;BME280;66079;47.646;19.130;2023-02-15T03:15:21;102090.72;;;-1.15;82.64
77124;BME280;66079;47.646;19.130;2023-02-15T03:18:30;102072.59;;;-1.40;83.28
77124;BME280;66079;47.646;19.130;2023-02-15T03:21:44;102075.31;;;-1.43;83.46
77124;BME280;66079;47.646;19.130;2023-02-15T03:25:22;102086.00;;;-1.37;83.19
77124;BME280;66079;47.646;19.130;2023-02-15T03:28:40;102070.34;;;-1.46;83.21
77124;BME280;66079;47.646;19.130;2023-02-15T03:31:46;102085.09;;;-1.36;82.75
77124;BME280;66079;47.646;19.130;2023-02-15T03:34:53;102087.91;;;-1.40;84.51
77124;BME280;66079;47.646;19.130;2023-02-15T03:38:00;102087.31;;;-1.45;84.84
77124;BME280;66079;47.646;19.130;2023-02-15T03:41:03;102084.03;;;-1.47;84.75
77124;BME280;66079;47.646;19.130;2023-02-15T03:44:19;102090.91;;;-1.49;84.86
77124;BME280;66079;47.646;19.130;2023-02-15T03:47:27;102087.00;;;-1.55;84.24
77124;BME280;66079;47.646;19.130;2023-02-15T03:50:35;102079.19;;;-1.52;84.18
77124;BME280;66079;47.646;19.130;2023-02-15T03:53:59;102081.06;;;-1.55;84.40
77124;BME280;66079;47.646;19.130;2023-02-15T03:57:02;102095.22;;;-1.50;84.23
77124;BME280;66079;47.646;19.130;2023-02-15T04:00:24;102076.63;;;-1.52;83.40
77124;BME280;66079;47.646;19.130;2023-02-15T04:03:51;102091.00;;;-1.51;83.70
77124;BME280;66079;47.646;19.130;2023-02-15T04:06:57;102087.78;;;-1.54;83.33
77124;BME280;66079;47.646;19.130;2023-02-15T04:09:59;102088.53;;;-1.52;83.18
77124;BME280;66079;47.646;19.130;2023-02-15T04:13:30;102079.25;;;-1.53;82.75
77124;BME280;66079;47.646;19.130;2023-02-15T04:16:33;102098.91;;;-1.55;82.82
77124;BME280;66079;47.646;19.130;2023-02-15T04:19:35;102095.53;;;-1.56;82.59
77124;BME280;66079;47.646;19.130;2023-02-15T04:22:56;102087.63;;;-1.67;82.73
77124;BME280;66079;47.646;19.130;2023-02-15T04:26:17;102083.28;;;-1.65;82.59
77124;BME280;66079;47.646;19.130;2023-02-15T04:29:21;102091.69;;;-1.63;82.56
77124;BME280;66079;47.646;19.130;2023-02-15T04:32:24;102097.00;;;-1.67;82.74
77124;BME280;66079;47.646;19.130;2023-02-15T04:35:26;102084.25;;;-1.67;82.80
77124;BME280;66079;47.646;19.130;2023-02-15T04:38:29;102080.81;;;-1.66;83.02
77124;BME280;66079;47.646;19.130;2023-02-15T04:41:32;102090.84;;;-1.63;83.03
77124;BME280;66079;47.646;19.130;2023-02-15T04:44:35;102091.31;;;-1.72;83.07
77124;BME280;66079;47.646;19.130;2023-02-15T04:47:37;102084.44;;;-1.86;83.20
77124;BME280;66079;47.646;19.130;2023-02-15T04:50:40;102096.84;;;-1.80;82.95
77124;BME280;66079;47.646;19.130;2023-02-15T04:53:42;102095.91;;;-1.79;82.98
77124;BME280;66079;47.646;19.130;2023-02-15T04:56:45;102099.13;;;-1.75;82.65
77124;BME280;66079;47.646;19.130;2023-02-15T04:59:48;102097.59;;;-1.78;82.89
77124;BME280;66079;47.646;19.130;2023-02-15T05:02:51;102102.91;;;-1.82;82.90
77124;BME280;66079;47.646;19.130;2023-02-15T05:05:53;102099.47;;;-1.81;82.58
77124;BME280;66079;47.646;19.130;2023-02-15T05:08:55;102073.06;;;-1.96;82.68
77124;BME280;66079;47.646;19.130;2023-02-15T05:12:01;102086.47;;;-1.92;82.37
77124;BME280;66079;47.646;19.130;2023-02-15T05:15:04;102099.72;;;-1.86;83.18
77124;BME280;66079;47.646;19.130;2023-02-15T05:18:06;102094.56;;;-2.01;83.61
77124;BME280;66079;47.646;19.130;2023-02-15T05:21:10;102087.69;;;-1.99;83.36
77124;BME280;66079;47.646;19.130;2023-02-15T05:24:13;102110.72;;;-1.85;83.44
77124;BME280;66079;47.646;19.130;2023-02-15T05:27:34;102095.16;;;-1.96;82.74
77124;BME280;66079;47.646;19.130;2023-02-15T05:31:05;102105.34;;;-1.96;82.62
77124;BME280;66079;47.646;19.130;2023-02-15T05:34:08;102107.38;;;-2.03;82.70
77124;BME280;66079;47.646;19.130;2023-02-15T05:37:11;102108.22;;;-2.02;83.12
77124;BME280;66079;47.646;19.130;2023-02-15T05:40:14;102124.53;;;-1.89;82.92
77124;BME280;66079;47.646;19.130;2023-02-15T05:43:17;102109.44;;;-1.94;82.72
77124;BME280;66079;47.646;19.130;2023-02-15T05:46:19;102106.34;;;-1.99;82.72
77124;BME280;66079;47.646;19.130;2023-02-15T05:49:22;102131.25;;;-1.88;83.00
77124;BME280;66079;47.646;19.130;2023-02-15T05:52:25;102128.88;;;-1.91;82.92
77124;BME280;66079;47.646;19.130;2023-02-15T05:55:27;102135.47;;;-1.87;83.16
77124;BME280;66079;47.646;19.130;2023-02-15T05:58:35;102142.28;;;-1.88;82.82
77124;BME280;66079;47.646;19.130;2023-02-15T06:01:38;102134.28;;;-1.97;83.00
77124;BME280;66079;47.646;19.130;2023-02-15T06:04:40;102123.44;;;-2.18;84.03
77124;BME280;66079;47.646;19.130;2023-02-15T06:07:43;102137.28;;;-2.06;84.16
77124;BME280;66079;47.646;19.130;2023-02-15T06:10:47;102124.47;;;-2.05;83.51
77124;BME280;66079;47.646;19.130;2023-02-15T06:13:50;102136.09;;;-1.84;83.98
77124;BME280;66079;47.646;19.130;2023-02-15T06:16:53;102143.53;;;-1.79;83.95
77124;BME280;66079;47.646;19.130;2023-02-15T06:19:56;102143.06;;;-1.70;84.41
77124;BME280;66079;47.646;19.130;2023-02-15T06:22:59;102139.84;;;-1.74;84.52
77124;BME280;66079;47.646;19.130;2023-02-15T06:26:02;102147.81;;;-1.64;83.97
77124;BME280;66079;47.646;19.130;2023-02-15T06:29:08;102139.69;;;-1.55;83.72
77124;BME280;66079;47.646;19.130;2023-02-15T06:32:11;102149.41;;;-1.46;83.86
77124;BME280;66079;47.646;19.130;2023-02-15T06:35:14;102147.69;;;-1.46;83.50
77124;BME280;66079;47.646;19.130;2023-02-15T06:38:18;102141.03;;;-1.48;83.52
77124;BME280;66079;47.646;19.130;2023-02-15T06:41:22;102166.78;;;-1.37;83.71
77124;BME280;66079;47.646;19.130;2023-02-15T06:44:25;102152.41;;;-1.38;83.60
77124;BME280;66079;47.646;19.130;2023-02-15T06:47:28;102147.63;;;-1.28;83.41
77124;BME280;66079;47.646;19.130;2023-02-15T06:50:30;102157.41;;;-1.21;83.26
77124;BME280;66079;47.646;19.130;2023-02-15T06:53:33;102164.31;;;-1.07;82.89
77124;BME280;66079;47.646;19.130;2023-02-15T06:56:36;102159.88;;;-1.04;82.98
77124;BME280;66079;47.646;19.130;2023-02-15T06:59:39;102154.09;;;-0.92;82.45
77124;BME280;66079;47.646;19.130;2023-02-15T07:02:43;102166.28;;;-0.52;81.48
77124;BME280;66079;47.646;19.130;2023-02-15T07:05:46;102147.97;;;-0.74;81.50
77124;BME280;66079;47.646;19.130;2023-02-15T07:08:52;102164.22;;;-0.61;81.18
77124;BME280;66079;47.646;19.130;2023-02-15T07:11:58;102176.75;;;-0.27;80.42
77124;BME280;66079;47.646;19.130;2023-02-15T07:15:21;102179.00;;;0.08;79.21
77124;BME280;66079;47.646;19.130;2023-02-15T07:18:25;102163.44;;;-0.18;80.13
77124;BME280;66079;47.646;19.130;2023-02-15T07:21:33;102165.94;;;-0.02;80.12
77124;BME280;66079;47.646;19.130;2023-02-15T07:24:38;102175.28;;;0.13;80.13
77124;BME280;66079;47.646;19.130;2023-02-15T07:27:41;102165.66;;;0.17;79.80
77124;BME280;66079;47.646;19.130;2023-02-15T07:30:44;102155.91;;;0.23;79.88
77124;BME280;66079;47.646;19.130;2023-02-15T07:33:47;102159.84;;;0.29;80.10
77124;BME280;66079;47.646;19.130;2023-02-15T07:36:52;102144.97;;;0.21;80.31
77124;BME280;66079;47.646;19.130;2023-02-15T07:39:56;102157.28;;;0.43;80.56
77124;BME280;66079;47.646;19.130;2023-02-15T07:43:00;102155.97;;;0.50;79.96
77124;BME280;66079;47.646;19.130;2023-02-15T07:46:05;102149.13;;;0.50;80.27
77124;BME280;66079;47.646;19.130;2023-02-15T07:49:08;102151.56;;;0.66;80.68
77124;BME280;66079;47.646;19.130;2023-02-15T07:52:11;102159.22;;;0.80;79.94
77124;BME280;66079;47.646;19.130;2023-02-15T07:55:14;102145.97;;;0.73;80.55
77124;BME280;66079;47.646;19.130;2023-02-15T07:58:18;102151.41;;;0.95;79.72
77124;BME280;66079;47.646;19.130;2023-02-15T08:01:29;102139.63;;;0.93;79.92
77124;BME280;66079;47.646;19.130;2023-02-15T08:04:33;102139.19;;;1.13;79.52
77124;BME280;66079;47.646;19.130;2023-02-15T08:07:36;102135.50;;;1.17;79.51
77124;BME280;66079;47.646;19.130;2023-02-15T08:10:39;102132.16;;;1.29;79.03
77124;BME280;66079;47.646;19.130;2023-02-15T08:14:13;102136.81;;;1.49;78.45
77124;BME280;66079;47.646;19.130;2023-02-15T08:17:17;102142.16;;;1.59;78.39
77124;BME280;66079;47.646;19.130;2023-02-15T08:20:21;102132.34;;;1.65;77.75
77124;BME280;66079;47.646;19.130;2023-02-15T08:23:24;102131.44;;;1.79;77.52
77124;BME280;66079;47.646;19.130;2023-02-15T08:26:27;102134.19;;;2.01;77.18
77124;BME280;66079;47.646;19.130;2023-02-15T08:29:32;102113.97;;;2.09;76.43
77124;BME280;66079;47.646;19.130;2023-02-15T08:32:35;102125.03;;;2.34;75.33
77124;BME280;66079;47.646;19.130;2023-02-15T08:35:38;102124.69;;;2.39;75.40
77124;BME280;66079;47.646;19.130;2023-02-15T08:38:41;102126.50;;;2.62;75.03
77124;BME280;66079;47.646;19.130;2023-02-15T08:41:45;102121.38;;;2.86;74.05
77124;BME280;66079;47.646;19.130;2023-02-15T08:44:49;102110.44;;;2.95;73.59
77124;BME280;66079;47.646;19.130;2023-02-15T08:47:54;102117.78;;;3.12;73.24
77124;BME280;66079;47.646;19.130;2023-02-15T08:50:57;102116.22;;;3.33;72.60
77124;BME280;66079;47.646;19.130;2023-02-15T08:54:02;102129.56;;;3.49;72.48
77124;BME280;66079;47.646;19.130;2023-02-15T08:57:06;102097.47;;;3.54;71.69
77124;BME280;66079;47.646;19.130;2023-02-15T09:00:09;102121.44;;;3.77;70.99
77124;BME280;66079;47.646;19.130;2023-02-15T09:03:13;102125.81;;;3.98;70.67
77124;BME280;66079;47.646;19.130;2023-02-15T09:06:16;102113.28;;;4.05;70.27
77124;BME280;66079;47.646;19.130;2023-02-15T09:09:19;102112.81;;;4.33;69.70
77124;BME280;66079;47.646;19.130;2023-02-15T09:12:22;102107.88;;;4.41;69.11
77124;BME280;66079;47.646;19.130;2023-02-15T09:15:25;102107.03;;;4.63;69.74
77124;BME280;66079;47.646;19.130;2023-02-15T09:18:33;102103.81;;;4.81;68.62
77124;BME280;66079;47.646;19.130;2023-02-15T09:21:38;102106.38;;;5.13;68.10
77124;BME280;66079;47.646;19.130;2023-02-15T09:24:41;102105.28;;;5.26;67.59
77124;BME280;66079;47.646;19.130;2023-02-15T09:27:44;102102.00;;;5.24;67.02
77124;BME280;66079;47.646;19.130;2023-02-15T09:30:46;102099.56;;;5.23;66.99
77124;BME280;66079;47.646;19.130;2023-02-15T09:33:49;102086.41;;;5.05;67.59
77124;BME280;66079;47.646;19.130;2023-02-15T09:36:52;102068.69;;;5.12;67.92
77124;BME280;66079;47.646;19.130;2023-02-15T09:39:55;102090.69;;;5.36;66.93
77124;BME280;66079;47.646;19.130;2023-02-15T09:43:10;102085.84;;;5.64;65.98
77124;BME280;66079;47.646;19.130;2023-02-15T09:53:50;102085.28;;;6.79;62.25
77124;BME280;66079;47.646;19.130;2023-02-15T09:57:21;102083.69;;;8.08;58.13
77124;BME280;66079;47.646;19.130;2023-02-15T10:10:49;102075.22;;;11.06;48.44
77124;BME280;66079;47.646;19.130;2023-02-15T10:28:05;102057.00;;;14.38;38.35
77124;BME280;66079;47.646;19.130;2023-02-15T10:31:32;102065.91;;;13.79;39.62
77124;BME280;66079;47.646;19.130;2023-02-15T10:38:18;102058.69;;;15.36;36.10
77124;BME280;66079;47.646;19.130;2023-02-15T10:45:23;102054.88;;;15.11;36.12
77124;BME280;66079;47.646;19.130;2023-02-15T11:02:03;102038.13;;;16.08;34.14
77124;BME280;66079;47.646;19.130;2023-02-15T11:08:40;102013.13;;;18.82;29.85
77124;BME280;66079;47.646;19.130;2023-02-15T11:11:49;102012.13;;;19.61;27.74
77124;BME280;66079;47.646;19.130;2023-02-15T11:18:02;102014.97;;;18.99;28.36
77124;BME280;66079;47.646;19.130;2023-02-15T11:21:28;102010.50;;;20.15;26.32
77124;BME280;66079;47.646;19.130;2023-02-15T11:24:43;101997.88;;;20.28;26.48
77124;BME280;66079;47.646;19.130;2023-02-15T11:27:47;101998.91;;;21.49;25.26
77124;BME280;66079;47.646;19.130;2023-02-15T11:30:54;101995.97;;;21.62;24.76
77124;BME280;66079;47.646;19.130;2023-02-15T11:34:04;101984.06;;;22.32;23.75
77124;BME280;66079;47.646;19.130;2023-02-15T11:37:11;101973.59;;;23.09;22.64
77124;BME280;66079;47.646;19.130;2023-02-15T11:43:26;101963.19;;;23.89;21.47
77124;BME280;66079;47.646;19.130;2023-02-15T11:46:31;101979.28;;;22.79;22.54
77124;BME280;66079;47.646;19.130;2023-02-15T11:49:34;101977.56;;;22.23;22.98
77124;BME280;66079;47.646;19.130;2023-02-15T11:52:37;101970.19;;;22.92;22.47
77124;BME280;66079;47.646;19.130;2023-02-15T11:55:43;101957.41;;;23.27;21.96
77124;BME280;66079;47.646;19.130;2023-02-15T11:59:03;101969.22;;;23.57;21.28
77124;BME280;66079;47.646;19.130;2023-02-15T12:02:16;101965.59;;;23.25;21.63
77124;BME280;66079;47.646;19.130;2023-02-15T12:05:21;101961.81;;;22.33;23.08
77124;BME280;66079;47.646;19.130;2023-02-15T12:08:39;101944.88;;;22.01;23.50
77124;BME280;66079;47.646;19.130;2023-02-15T12:11:43;101955.44;;;24.09;22.39
77124;BME280;66079;47.646;19.130;2023-02-15T12:15:03;101950.16;;;23.01;22.17
77124;BME280;66079;47.646;19.130;2023-02-15T12:18:18;101942.94;;;23.34;21.72
77124;BME280;66079;47.646;19.130;2023-02-15T12:24:38;101927.53;;;23.15;21.66
77124;BME280;66079;47.646;19.130;2023-02-15T12:27:46;101919.63;;;22.60;22.55
77124;BME280;66079;47.646;19.130;2023-02-15T12:30:52;101909.31;;;21.41;23.57
77124;BME280;66079;47.646;19.130;2023-02-15T12:33:57;101910.97;;;22.86;22.19
77124;BME280;66079;47.646;19.130;2023-02-15T12:37:09;101906.56;;;22.75;22.43
77124;BME280;66079;47.646;19.130;2023-02-15T12:40:22;101915.44;;;22.31;23.20
77124;BME280;66079;47.646;19.130;2023-02-15T12:43:38;101907.25;;;22.32;23.00
77124;BME280;66079;47.646;19.130;2023-02-15T12:46:41;101891.66;;;21.75;23.70
77124;BME280;66079;47.646;19.130;2023-02-15T12:50:14;101906.94;;;23.00;22.44
77124;BME280;66079;47.646;19.130;2023-02-15T12:53:30;101906.94;;;23.97;21.10
77124;BME280;66079;47.646;19.130;2023-02-15T12:56:32;101891.75;;;25.02;20.24
77124;BME280;66079;47.646;19.130;2023-02-15T12:59:35;101885.59;;;25.93;19.16
77124;BME280;66079;47.646;19.130;2023-02-15T13:05:44;101874.13;;;24.44;19.66
77124;BME280;66079;47.646;19.130;2023-02-15T13:08:52;101847.97;;;24.73;20.15
77124;BME280;66079;47.646;19.130;2023-02-15T13:11:56;101872.53;;;24.90;19.63
77124;BME280;66079;47.646;19.130;2023-02-15T13:14:59;101873.34;;;25.92;19.10
77124;BME280;66079;47.646;19.130;2023-02-15T13:18:10;101845.38;;;23.73;20.75
77124;BME280;66079;47.646;19.130;2023-02-15T13:21:21;101863.69;;;24.33;20.42
77124;BME280;66079;47.646;19.130;2023-02-15T13:24:35;101864.22;;;23.23;21.27
77124;BME280;66079;47.646;19.130;2023-02-15T13:27:42;101857.13;;;24.97;20.01
77124;BME280;66079;47.646;19.130;2023-02-15T13:30:47;101827.28;;;24.85;19.78
77124;BME280;66079;47.646;19.130;2023-02-15T13:34:11;101849.56;;;24.69;20.46
77124;BME280;66079;47.646;19.130;2023-02-15T13:40:23;101844.34;;;24.94;19.72
77124;BME280;66079;47.646;19.130;2023-02-15T13:46:56;101831.84;;;23.75;20.78
77124;BME280;66079;47.646;19.130;2023-02-15T14:03:25;101833.97;;;23.46;20.92
77124;BME280;66079;47.646;19.130;2023-02-15T14:06:51;101824.81;;;23.90;21.19
77124;BME280;66079;47.646;19.130;2023-02-15T14:20:36;101832.81;;;23.15;21.58
77124;BME280;66079;47.646;19.130;2023-02-15T14:30:19;101838.44;;;21.03;24.89
77124;BME280;66079;47.646;19.130;2023-02-15T14:36:38;101803.31;;;20.80;24.84
77124;BME280;66079;47.646;19.130;2023-02-15T14:40:02;101830.41;;;21.99;23.67
77124;BME280;66079;47.646;19.130;2023-02-15T14:53:34;101822.91;;;20.95;24.91
77124;BME280;66079;47.646;19.130;2023-02-15T14:56:40;101805.78;;;20.47;25.15
77124;BME280;66079;47.646;19.130;2023-02-15T14:59:46;101812.09;;;19.29;26.85
77124;BME280;66079;47.646;19.130;2023-02-15T15:02:54;101805.56;;;16.85;30.71
77124;BME280;66079;47.646;19.130;2023-02-15T15:05:59;101796.81;;;14.75;34.58
77124;BME280;66079;47.646;19.130;2023-02-15T15:18:47;101801.16;;;11.44;43.31
77124;BME280;66079;47.646;19.130;2023-02-15T15:27:58;101795.75;;;10.76;45.48
77124;BME280;66079;47.646;19.130;2023-02-15T15:51:50;101778.56;;;9.22;49.98
77124;BME280;66079;47.646;19.130;2023-02-15T15:54:56;101774.72;;;8.85;51.48
77124;BME280;66079;47.646;19.130;2023-02-15T15:58:02;101757.28;;;8.69;51.81
77124;BME280;66079;47.646;19.130;2023-02-15T16:01:10;101777.50;;;8.66;52.10
77124;BME280;66079;47.646;19.130;2023-02-15T16:04:27;101773.31;;;8.65;52.24
77124;BME280;66079;47.646;19.130;2023-02-15T16:07:32;101778.81;;;8.62;52.46
77124;BME280;66079;47.646;19.130;2023-02-15T16:10:35;101773.09;;;8.33;53.25
77124;BME280;66079;47.646;19.130;2023-02-15T16:13:41;101787.34;;;8.29;53.80
77124;BME280;66079;47.646;19.130;2023-02-15T16:16:54;101772.75;;;8.10;54.22
77124;BME280;66079;47.646;19.130;2023-02-15T16:20:03;101779.72;;;8.09;54.32
77124;BME280;66079;47.646;19.130;2023-02-15T16:29:42;101781.75;;;7.80;55.37
77124;BME280;66079;47.646;19.130;2023-02-15T16:32:45;101788.22;;;7.76;55.55
77124;BME280;66079;47.646;19.130;2023-02-15T16:35:56;101787.00;;;7.53;56.47
77124;BME280;66079;47.646;19.130;2023-02-15T16:42:02;101782.53;;;7.28;57.75
77124;BME280;66079;47.646;19.130;2023-02-15T16:45:12;101795.97;;;7.14;58.30
77124;BME280;66079;47.646;19.130;2023-02-15T16:48:23;101782.03;;;6.98;58.89
77124;BME280;66079;47.646;19.130;2023-02-15T16:51:29;101785.03;;;6.93;59.08
77124;BME280;66079;47.646;19.130;2023-02-15T16:54:34;101782.25;;;6.77;59.60
77124;BME280;66079;47.646;19.130;2023-02-15T16:57:38;101792.16;;;6.82;59.63
77124;BME280;66079;47.646;19.130;2023-02-15T17:00:45;101798.63;;;6.68;60.07
77124;BME280;66079;47.646;19.130;2023-02-15T17:03:50;101805.53;;;6.67;60.40
77124;BME280;66079;47.646;19.130;2023-02-15T17:10:02;101822.03;;;6.57;60.94
77124;BME280;66079;47.646;19.130;2023-02-15T17:13:16;101804.94;;;6.46;61.29
77124;BME280;66079;47.646;19.130;2023-02-15T17:16:27;101801.28;;;6.39;61.47
77124;BME280;66079;47.646;19.130;2023-02-15T17:19:33;101815.53;;;6.34;61.68
77124;BME280;66079;47.646;19.130;2023-02-15T17:22:44;101816.22;;;6.36;61.65
77124;BME280;66079;47.646;19.130;2023-02-15T17:25:47;101817.19;;;6.35;62.07
77124;BME280;66079;47.646;19.130;2023-02-15T17:28:58;101820.19;;;6.30;61.86
77124;BME280;66079;47.646;19.130;2023-02-15T17:32:04;101816.81;;;6.11;62.83
77124;BME280;66079;47.646;19.130;2023-02-15T17:35:20;101818.03;;;5.97;63.38
77124;BME280;66079;47.646;19.130;2023-02-15T17:38:24;101800.34;;;5.74;63.55
77124;BME280;66079;47.646;19.130;2023-02-15T17:41:29;101802.91;;;5.74;64.12
77124;BME280;66079;47.646;19.130;2023-02-15T17:44:33;101826.00;;;5.75;64.02
77124;BME280;66079;47.646;19.130;2023-02-15T17:47:36;101810.91;;;5.52;64.46
77124;BME280;66079;47.646;19.130;2023-02-15T17:50:39;101814.00;;;5.45;65.01
77124;BME280;66079;47.646;19.130;2023-02-15T17:53:42;101822.56;;;5.36;65.04
77124;BME280;66079;47.646;19.130;2023-02-15T17:57:12;101807.88;;;5.27;65.17
77124;BME280;66079;47.646;19.130;2023-02-15T18:00:15;101813.66;;;5.10;65.70
77124;BME280;66079;47.646;19.130;2023-02-15T18:03:43;101807.78;;;4.99;66.17
77124;BME280;66079;47.646;19.130;2023-02-15T18:07:08;101810.22;;;4.91;66.35
77124;BME280;66079;47.646;19.130;2023-02-15T18:10:29;101816.44;;;4.98;65.89
77124;BME280;66079;47.646;19.130;2023-02-15T18:13:51;101818.69;;;4.82;66.97
77124;BME280;66079;47.646;19.130;2023-02-15T18:16:54;101802.06;;;4.65;67.08
77124;BME280;66079;47.646;19.130;2023-02-15T18:19:57;101804.66;;;4.65;67.41
77124;BME280;66079;47.646;19.130;2023-02-15T18:23:03;101806.91;;;4.59;66.99
77124;BME280;66079;47.646;19.130;2023-02-15T18:26:06;101817.88;;;4.51;67.70
77124;BME280;66079;47.646;19.130;2023-02-15T18:29:09;101811.59;;;4.44;67.73
77124;BME280;66079;47.646;19.130;2023-02-15T18:32:16;101796.25;;;4.22;67.97
77124;BME280;66079;47.646;19.130;2023-02-15T18:35:21;101808.16;;;4.14;68.92
77124;BME280;66079;47.646;19.130;2023-02-15T18:38:25;101815.41;;;4.08;69.10
77124;BME280;66079;47.646;19.130;2023-02-15T18:41:29;101799.25;;;3.86;68.77
77124;BME280;66079;47.646;19.130;2023-02-15T18:44:32;101819.59;;;3.89;69.43
77124;BME280;66079;47.646;19.130;2023-02-15T18:47:35;101822.16;;;3.89;69.18
77124;BME280;66079;47.646;19.130;2023-02-15T18:50:37;101816.00;;;3.80;69.70
77124;BME280;66079;47.646;19.130;2023-02-15T18:53:40;101803.53;;;3.65;69.73
77124;BME280;66079;47.646;19.130;2023-02-15T18:56:44;101798.06;;;3.58;70.20
77124;BME280;66079;47.646;19.130;2023-02-15T18:59:48;101812.00;;;3.56;70.50
77124;BME280;66079;47.646;19.130;2023-02-15T19:02:51;101800.22;;;3.42;70.33
77124;BME280;66079;47.646;19.130;2023-02-15T19:05:56;101808.88;;;3.41;70.56
77124;BME280;66079;47.646;19.130;2023-02-15T19:08:59;101783.56;;;3.15;70.62
77124;BME280;66079;47.646;19.130;2023-02-15T19:12:03;101798.97;;;3.26;70.93
77124;BME280;66079;47.646;19.130;2023-02-15T19:15:13;101806.41;;;3.29;71.36